createdAt,value
2023-02-16T00:00:24.354Z,101477.28
2023-02-16T00:02:51.366Z,101476.47
2023-02-16T00:05:31.351Z,101483.78
2023-02-16T00:08:00.336Z,101477.00
2023-02-16T00:10:33.832Z,101484.00
2023-02-16T00:13:19.928Z,101487.50
2023-02-16T00:15:47.292Z,101477.69
2023-02-16T00:18:21.226Z,101475.09
2023-02-16T00:20:51.034Z,101503.09
2023-02-16T00:23:17.994Z,101497.38
2023-02-16T00:25:45.098Z,101502.34
2023-02-16T00:28:21.068Z,101499.22
2023-02-16T00:30:50.370Z,101493.53
2023-02-16T00:33:21.170Z,101506.97
2023-02-16T00:35:49.067Z,101496.00
2023-02-16T00:38:16.169Z,101502.09
2023-02-16T00:40:43.546Z,101500.41
2023-02-16T00:43:26.376Z,101509.31
2023-02-16T00:45:53.832Z,101504.47
2023-02-16T00:48:21.782Z,101501.78
2023-02-16T00:50:49.321Z,101505.84
2023-02-16T00:53:16.581Z,101508.91
2023-02-16T00:55:44.577Z,101516.09
2023-02-16T00:58:23.556Z,101519.28
2023-02-16T01:00:59.111Z,101518.69
2023-02-16T01:03:29.707Z,101512.84
2023-02-16T01:06:14.942Z,101514.31
2023-02-16T01:09:01.259Z,101516.56
2023-02-16T01:11:29.127Z,101521.53
2023-02-16T01:13:57.646Z,101515.44
2023-02-16T01:16:36.391Z,101521.66
2023-02-16T01:19:04.521Z,101523.03
2023-02-16T01:21:31.529Z,101523.03
2023-02-16T01:23:58.691Z,101513.31
2023-02-16T01:26:25.736Z,101528.91
2023-02-16T01:28:52.800Z,101532.97
2023-02-16T01:31:19.883Z,101540.09
2023-02-16T01:33:46.912Z,101543.81
2023-02-16T01:36:43.790Z,101534.88
2023-02-16T01:39:15.820Z,101535.31
2023-02-16T01:42:16.572Z,101535.75
2023-02-16T01:44:58.861Z,101524.56
2023-02-16T01:47:51.556Z,101526.94
2023-02-16T01:50:26.054Z,101526.84
2023-02-16T01:53:04.480Z,101529.66
2023-02-16T01:55:40.955Z,101515.34
2023-02-16T01:58:51.266Z,101507.09
2023-02-16T02:01:53.382Z,101507.91
2023-02-16T02:05:22.562Z,101506.09
2023-02-16T02:07:53.895Z,101510.38
2023-02-16T02:10:52.392Z,101513.19
2023-02-16T02:13:36.960Z,101518.28
2023-02-16T02:16:06.756Z,101507.78
2023-02-16T02:18:34.152Z,101512.19
2023-02-16T02:22:03.299Z,101505.88
2023-02-16T02:24:39.141Z,101508.81
2023-02-16T02:27:31.833Z,101509.59
2023-02-16T02:30:37.668Z,101514.44
2023-02-16T02:33:41.581Z,101510.72
2023-02-16T02:36:28.161Z,101506.88
2023-02-16T02:39:42.337Z,101503.28
2023-02-16T02:42:18.715Z,101503.19
2023-02-16T02:45:28.402Z,101508.47
2023-02-16T02:47:55.522Z,101519.94
2023-02-16T02:51:07.264Z,101517.00
2023-02-16T02:54:23.415Z,101510.50
2023-02-16T02:57:14.943Z,101500.25
2023-02-16T03:00:06.474Z,101505.56
2023-02-16T03:02:35.915Z,101511.88
2023-02-16T03:05:06.280Z,101508.03
2023-02-16T03:07:48.332Z,101506.69
2023-02-16T03:10:51.096Z,101509.38
2023-02-16T03:13:44.613Z,101515.84
2023-02-16T03:16:18.062Z,101516.75
2023-02-16T03:19:06.554Z,101523.63
2023-02-16T03:21:54.680Z,101518.31
2023-02-16T03:24:47.268Z,101522.63
2023-02-16T03:27:43.541Z,101530.41
2023-02-16T03:30:12.542Z,101524.06
2023-02-16T03:32:39.805Z,101526.91
2023-02-16T03:35:07.351Z,101524.88
2023-02-16T03:37:34.498Z,101521.72
2023-02-16T03:40:20.077Z,101516.53
2023-02-16T03:42:53.139Z,101523.06
2023-02-16T03:45:22.181Z,101509.31
2023-02-16T03:47:49.531Z,101509.19
2023-02-16T03:50:16.914Z,101506.38
2023-02-16T03:52:44.029Z,101535.59
2023-02-16T03:55:11.004Z,101542.50
2023-02-16T03:57:38.178Z,101535.16
2023-02-16T04:00:06.412Z,101549.28
2023-02-16T04:02:33.449Z,101546.22
2023-02-16T04:05:00.446Z,101543.19
2023-02-16T04:07:27.600Z,101544.44
2023-02-16T04:09:54.600Z,101544.09
2023-02-16T04:12:36.456Z,101535.97
2023-02-16T04:15:19.887Z,101541.50
2023-02-16T04:17:47.344Z,101541.50
2023-02-16T04:20:18.913Z,101554.56
2023-02-16T04:22:46.911Z,101554.81
2023-02-16T04:25:15.801Z,101540.25
2023-02-16T04:27:43.676Z,101549.84
2023-02-16T04:30:21.077Z,101547.25
2023-02-16T04:32:48.535Z,101547.94
2023-02-16T04:35:16.501Z,101546.34
2023-02-16T04:37:43.670Z,101543.53
2023-02-16T04:40:15.230Z,101548.84
2023-02-16T04:42:43.752Z,101552.69
2023-02-16T04:45:11.460Z,101559.00
2023-02-16T04:47:38.497Z,101557.75
2023-02-16T04:50:06.565Z,101559.69
2023-02-16T04:52:34.428Z,101560.81
2023-02-16T04:55:01.450Z,101563.41
2023-02-16T04:57:28.758Z,101565.22
2023-02-16T04:59:55.743Z,101569.72
2023-02-16T05:02:22.850Z,101569.16
2023-02-16T05:04:49.911Z,101570.50
2023-02-16T05:07:16.972Z,101576.38
2023-02-16T05:09:43.958Z,101569.59
2023-02-16T05:12:30.495Z,101574.44
2023-02-16T05:14:57.462Z,101577.28
2023-02-16T05:17:26.658Z,101573.09
2023-02-16T05:20:00.484Z,101580.31
2023-02-16T05:22:33.596Z,101582.13
2023-02-16T05:25:02.065Z,101576.72
2023-02-16T05:27:31.379Z,101582.13
2023-02-16T05:29:59.320Z,101584.72
2023-02-16T05:32:26.898Z,101595.13
2023-02-16T05:34:53.968Z,101587.53
2023-02-16T05:37:21.274Z,101588.34
2023-02-16T05:39:48.890Z,101593.53
2023-02-16T05:42:15.867Z,101598.94
2023-02-16T05:44:42.856Z,101600.41
2023-02-16T05:47:09.841Z,101612.94
2023-02-16T05:49:36.862Z,101612.84
2023-02-16T05:52:03.897Z,101617.25
2023-02-16T05:54:30.984Z,101618.03
2023-02-16T05:56:57.968Z,101606.50
2023-02-16T05:59:25.053Z,101604.59
2023-02-16T06:01:52.672Z,101612.50
2023-02-16T06:04:21.532Z,101611.38
2023-02-16T06:06:48.925Z,101607.66
2023-02-16T06:12:03.041Z,101609.56
2023-02-16T06:14:30.041Z,101626.50
2023-02-16T06:16:58.856Z,101624.69
2023-02-16T06:19:26.242Z,101631.94
2023-02-16T06:21:53.292Z,101642.19
2023-02-16T06:24:20.286Z,101638.25
2023-02-16T06:26:47.444Z,101635.09
2023-02-16T06:29:15.770Z,101637.00
2023-02-16T06:31:43.176Z,101638.25
2023-02-16T06:34:10.367Z,101631.00
2023-02-16T06:36:37.452Z,101646.59
2023-02-16T06:39:04.652Z,101638.91
2023-02-16T06:41:31.992Z,101645.91
2023-02-16T06:44:06.270Z,101648.72
2023-02-16T06:46:33.476Z,101649.41
2023-02-16T06:49:01.295Z,101642.22
2023-02-16T06:51:28.783Z,101653.47
2023-02-16T06:53:55.989Z,101656.97
2023-02-16T06:56:23.704Z,101659.84
2023-02-16T06:58:51.383Z,101656.34
2023-02-16T07:01:23.298Z,101655.03
2023-02-16T07:03:52.806Z,101663.59
2023-02-16T07:06:20.752Z,101672.53
2023-02-16T07:08:47.911Z,101677.84
2023-02-16T07:11:15.569Z,101686.31
2023-02-16T07:13:42.626Z,101687.22
2023-02-16T07:16:10.170Z,101695.34
2023-02-16T07:18:37.473Z,101698.28
2023-02-16T07:21:05.411Z,101690.69
2023-02-16T07:23:34.099Z,101689.22
2023-02-16T07:26:01.275Z,101696.47
2023-02-16T07:28:28.632Z,101696.03
2023-02-16T07:30:55.641Z,101711.50
2023-02-16T07:33:23.165Z,101711.97
2023-02-16T07:35:50.407Z,101722.59
2023-02-16T07:38:17.460Z,101715.59
2023-02-16T07:40:44.579Z,101707.47
2023-02-16T07:43:11.756Z,101710.84
2023-02-16T07:45:38.809Z,101698.53
2023-02-16T07:48:05.990Z,101706.22
2023-02-16T07:50:33.070Z,101697.84
2023-02-16T07:53:03.053Z,101705.19
2023-02-16T07:55:30.661Z,101715.94
2023-02-16T07:57:57.779Z,101728.81
2023-02-16T08:00:26.847Z,101737.28
2023-02-16T08:02:54.277Z,101734.03
2023-02-16T08:05:21.781Z,101738.88
2023-02-16T08:07:49.070Z,101743.50
2023-02-16T08:10:16.929Z,101752.78
2023-02-16T08:12:44.639Z,101740.34
2023-02-16T08:15:12.229Z,101738.75
2023-02-16T08:17:39.459Z,101748.25
2023-02-16T08:20:09.894Z,101753.78
2023-02-16T08:22:37.716Z,101750.28
2023-02-16T08:25:06.973Z,101762.38
2023-02-16T08:27:34.371Z,101769.28
2023-02-16T08:30:01.510Z,101759.56
2023-02-16T08:32:28.655Z,101773.69
2023-02-16T08:34:57.480Z,101771.88
2023-02-16T08:37:25.127Z,101759.09
2023-02-16T08:39:52.198Z,101766.44
2023-02-16T08:42:19.945Z,101750.53
2023-02-16T08:44:47.352Z,101766.78
2023-02-16T08:47:14.735Z,101768.34
2023-02-16T08:49:42.061Z,101770.06
2023-02-16T08:52:10.841Z,101774.13
2023-02-16T08:54:38.854Z,101784.19
2023-02-16T08:57:06.369Z,101781.25
2023-02-16T08:59:34.989Z,101794.50
2023-02-16T09:02:02.262Z,101802.06
2023-02-16T09:04:30.054Z,101831.44
2023-02-16T09:06:58.573Z,101817.53
2023-02-16T09:09:27.208Z,101802.84
2023-02-16T09:11:54.751Z,101799.03
2023-02-16T09:14:23.456Z,101817.09
2023-02-16T09:16:50.757Z,101818.44
2023-02-16T09:19:21.558Z,101818.44
2023-02-16T09:21:51.045Z,101822.63
2023-02-16T09:24:18.415Z,101828.81
2023-02-16T09:26:45.536Z,101844.25
2023-02-16T09:29:13.995Z,101832.06
2023-02-16T09:31:42.700Z,101839.31
2023-02-16T09:34:18.880Z,101838.16
2023-02-16T09:36:55.724Z,101843.44
2023-02-16T09:39:22.919Z,101857.09
2023-02-16T09:41:59.744Z,101869.81
2023-02-16T09:44:41.147Z,101861.56
2023-02-16T09:47:29.548Z,101856.47
2023-02-16T09:50:43.873Z,101872.16
2023-02-16T09:53:32.964Z,101867.94
2023-02-16T09:56:25.784Z,101868.47
2023-02-16T09:59:14.712Z,101861.91
2023-02-16T10:02:17.712Z,101876.69
2023-02-16T10:05:17.597Z,101882.63
2023-02-16T10:07:57.652Z,101873.31
2023-02-16T10:10:54.849Z,101902.56
2023-02-16T10:13:54.159Z,101904.22
2023-02-16T10:16:32.762Z,101928.31
2023-02-16T10:19:04.377Z,101899.78
2023-02-16T10:21:32.625Z,101920.16
2023-02-16T10:24:06.520Z,101920.66
2023-02-16T10:26:46.729Z,101947.19
2023-02-16T10:29:23.361Z,101947.75
2023-02-16T10:32:11.819Z,101947.47
2023-02-16T10:34:49.230Z,101954.88
2023-02-16T10:37:31.500Z,101979.66
2023-02-16T10:40:26.526Z,101971.91
2023-02-16T10:43:11.126Z,101936.78
2023-02-16T10:45:52.441Z,101939.28
2023-02-16T10:48:21.763Z,101970.47
2023-02-16T10:51:12.691Z,101944.06
2023-02-16T10:53:52.626Z,101944.69
2023-02-16T10:56:46.006Z,101978.66
2023-02-16T10:59:19.841Z,101960.72
2023-02-16T11:01:59.209Z,101959.34
2023-02-16T11:04:52.676Z,101969.66
2023-02-16T11:07:25.051Z,101938.13
2023-02-16T11:09:56.046Z,101944.72
2023-02-16T11:12:36.847Z,101942.38
2023-02-16T11:15:08.447Z,101954.47
2023-02-16T11:18:08.135Z,101951.63
2023-02-16T11:20:45.169Z,101927.81
2023-02-16T11:23:40.775Z,101946.19
2023-02-16T11:26:22.882Z,101932.53
2023-02-16T11:28:52.040Z,101936.75
2023-02-16T11:31:37.548Z,101930.75
2023-02-16T11:34:37.756Z,101922.22
2023-02-16T11:37:31.108Z,101934.91
2023-02-16T11:40:19.931Z,101919.16
2023-02-16T11:42:57.506Z,101894.69
2023-02-16T11:45:33.050Z,101888.63
2023-02-16T11:48:12.422Z,101908.00
2023-02-16T11:51:04.183Z,101911.03
2023-02-16T11:53:35.178Z,101907.03
2023-02-16T11:56:24.749Z,101895.84
2023-02-16T11:59:16.361Z,101895.38
2023-02-16T12:02:14.551Z,101894.56
2023-02-16T12:05:19.516Z,101891.06
2023-02-16T12:08:16.675Z,101882.09
2023-02-16T12:11:17.430Z,101861.34
2023-02-16T12:14:18.339Z,101828.16
2023-02-16T12:17:17.754Z,101829.94
2023-02-16T12:19:49.389Z,101818.72
2023-02-16T12:22:37.791Z,101807.41
2023-02-16T12:25:26.297Z,101804.28
2023-02-16T12:28:17.466Z,101774.78
2023-02-16T12:31:22.860Z,101795.47
2023-02-16T12:34:48.892Z,101802.84
2023-02-16T12:38:13.869Z,101796.66
2023-02-16T12:41:00.871Z,101778.06
2023-02-16T12:43:52.355Z,101790.97
2023-02-16T12:46:30.723Z,101783.13
2023-02-16T12:49:12.272Z,101773.63
2023-02-16T12:51:53.506Z,101732.63
2023-02-16T12:54:40.101Z,101727.06
2023-02-16T12:57:21.393Z,101720.13
2023-02-16T13:00:18.102Z,101676.31
2023-02-16T13:02:57.090Z,101708.31
2023-02-16T13:05:36.314Z,101689.72
2023-02-16T13:08:31.576Z,101637.44
2023-02-16T13:11:08.806Z,101672.38
2023-02-16T13:13:36.879Z,101639.53
2023-02-16T13:16:28.967Z,101634.72
2023-02-16T13:18:57.330Z,101652.72
2023-02-16T13:21:53.403Z,101611.41
2023-02-16T13:24:34.349Z,101602.38
2023-02-16T13:27:30.805Z,101611.72
2023-02-16T13:30:30.376Z,101606.22
2023-02-16T13:33:59.643Z,101621.56
2023-02-16T13:37:18.960Z,101597.91
2023-02-16T13:40:28.308Z,101561.84
2023-02-16T13:43:05.141Z,101559.31
2023-02-16T13:45:39.259Z,101493.78
2023-02-16T13:48:29.234Z,101493.84
2023-02-16T13:51:18.837Z,101516.50
2023-02-16T13:53:58.057Z,101536.38
2023-02-16T13:56:31.164Z,101502.59
2023-02-16T13:59:18.695Z,101469.47
2023-02-16T14:01:50.787Z,101484.13
2023-02-16T14:04:23.830Z,101508.06
2023-02-16T14:07:18.444Z,101454.03
2023-02-16T14:09:50.956Z,101482.47
2023-02-16T14:12:32.110Z,101481.53
2023-02-16T14:15:03.752Z,101486.31
2023-02-16T14:17:36.520Z,101463.13
2023-02-16T14:20:09.676Z,101447.72
2023-02-16T14:22:59.851Z,101434.53
2023-02-16T14:25:30.952Z,101438.34
2023-02-16T14:28:31.899Z,101435.75
2023-02-16T14:31:12.697Z,101410.19
2023-02-16T14:34:28.297Z,101412.97
2023-02-16T14:37:17.280Z,101415.78
2023-02-16T14:40:06.468Z,101390.59
2023-02-16T14:42:36.254Z,101369.75
2023-02-16T14:45:12.374Z,101375.03
2023-02-16T14:48:23.636Z,101360.97
2023-02-16T14:51:41.721Z,101357.06
2023-02-16T14:54:37.410Z,101354.91
2023-02-16T14:57:46.081Z,101344.84
2023-02-16T15:00:51.593Z,101334.00
2023-02-16T15:03:25.647Z,101327.53
2023-02-16T15:06:04.549Z,101327.38
2023-02-16T15:08:37.436Z,101314.66
2023-02-16T15:11:27.710Z,101316.31
2023-02-16T15:14:16.404Z,101297.22
2023-02-16T15:16:45.039Z,101298.28
2023-02-16T15:19:27.187Z,101285.22
2023-02-16T15:22:19.555Z,101290.25
2023-02-16T15:25:29.352Z,101279.56
2023-02-16T15:28:12.551Z,101285.88
2023-02-16T15:30:42.930Z,101272.41
2023-02-16T15:33:23.932Z,101291.91
2023-02-16T15:36:00.731Z,101272.94
2023-02-16T15:38:40.440Z,101279.16
2023-02-16T15:41:14.705Z,101272.94
2023-02-16T15:43:48.362Z,101250.50
2023-02-16T15:46:35.276Z,101255.94
2023-02-16T15:49:33.054Z,101248.78
2023-02-16T15:52:01.455Z,101247.00
2023-02-16T15:54:35.601Z,101262.47
2023-02-16T15:57:15.877Z,101249.88
2023-02-16T15:59:54.433Z,101241.84
2023-02-16T16:02:35.904Z,101232.84
2023-02-16T16:05:19.985Z,101238.13
2023-02-16T16:07:47.665Z,101227.34
2023-02-16T16:10:21.835Z,101218.06
2023-02-16T16:12:58.521Z,101224.03
2023-02-16T16:15:27.960Z,101216.88
2023-02-16T16:17:59.836Z,101218.56
2023-02-16T16:20:42.307Z,101220.34
2023-02-16T16:23:15.302Z,101210.38
2023-02-16T16:25:45.967Z,101209.44
2023-02-16T16:28:29.251Z,101203.22
2023-02-16T16:31:20.974Z,101210.13
2023-02-16T16:34:04.673Z,101196.75
2023-02-16T16:36:36.916Z,101206.53
2023-02-16T16:39:11.318Z,101212.06
2023-02-16T16:41:40.295Z,101214.97
2023-02-16T16:44:13.689Z,101204.25
2023-02-16T16:46:40.805Z,101197.66
2023-02-16T16:49:16.666Z,101202.22
2023-02-16T16:51:44.325Z,101193.47
2023-02-16T16:54:22.125Z,101180.56
2023-02-16T16:56:49.178Z,101169.56
2023-02-16T16:59:17.579Z,101204.19
2023-02-16T17:01:46.621Z,101194.47
2023-02-16T17:04:13.862Z,101205.03
2023-02-16T17:06:41.873Z,101212.97
2023-02-16T17:09:09.290Z,101207.50
2023-02-16T17:11:38.573Z,101210.19
2023-02-16T17:14:15.634Z,101205.94
2023-02-16T17:16:46.350Z,101199.63
2023-02-16T17:19:15.916Z,101199.63
2023-02-16T17:21:44.325Z,101198.72
2023-02-16T17:24:12.194Z,101196.03
2023-02-16T17:26:40.237Z,101176.63
2023-02-16T17:29:08.719Z,101181.88
2023-02-16T17:31:36.350Z,101186.19
2023-02-16T17:34:03.894Z,101188.69
2023-02-16T17:36:31.993Z,101202.88
2023-02-16T17:38:59.205Z,101199.56
2023-02-16T17:41:29.464Z,101194.34
2023-02-16T17:43:56.971Z,101192.63
2023-02-16T17:46:25.673Z,101197.94
2023-02-16T17:48:58.173Z,101195.31
2023-02-16T17:51:26.704Z,101216.53
2023-02-16T17:53:54.128Z,101231.41
2023-02-16T17:56:23.900Z,101248.00
2023-02-16T17:58:51.980Z,101242.81
2023-02-16T18:01:20.799Z,101242.03
2023-02-16T18:03:48.916Z,101241.25
2023-02-16T18:06:18.949Z,101246.66
2023-02-16T18:08:46.365Z,101243.50
2023-02-16T18:11:14.154Z,101247.09
2023-02-16T18:13:42.022Z,101258.81
2023-02-16T18:16:14.785Z,101246.78
2023-02-16T18:18:42.133Z,101241.50
2023-02-16T18:21:09.601Z,101230.69
2023-02-16T18:23:37.047Z,101222.66
2023-02-16T18:26:06.748Z,101214.81
2023-02-16T18:28:35.223Z,101221.34
2023-02-16T18:31:06.806Z,101206.50
2023-02-16T18:33:35.013Z,101207.66
2023-02-16T18:36:04.085Z,101198.97
2023-02-16T18:38:32.728Z,101182.22
2023-02-16T18:41:00.778Z,101170.56
2023-02-16T18:43:28.201Z,101163.25
2023-02-16T18:45:56.165Z,101170.56
2023-02-16T18:48:23.899Z,101166.28
2023-02-16T18:50:51.828Z,101151.94
2023-02-16T18:53:19.841Z,101136.72
2023-02-16T18:55:48.601Z,101149.03
2023-02-16T18:58:16.990Z,101127.53
2023-02-16T19:00:44.305Z,101139.31
2023-02-16T19:03:11.654Z,101138.53
2023-02-16T19:05:38.944Z,101114.47
2023-02-16T19:08:06.280Z,101113.22
2023-02-16T19:10:33.922Z,101101.31
2023-02-16T19:13:02.287Z,101118.91
2023-02-16T19:15:34.122Z,101125.50
2023-02-16T19:18:01.421Z,101141.00
2023-02-16T19:20:31.922Z,101123.13
2023-02-16T19:22:59.069Z,101104.69
2023-02-16T19:25:26.882Z,101101.56
2023-02-16T19:27:54.014Z,101091.63
2023-02-16T19:30:22.237Z,101087.88
2023-02-16T19:32:49.354Z,101100.44
2023-02-16T19:35:16.560Z,101096.06
2023-02-16T19:37:43.668Z,101084.41
2023-02-16T19:40:14.411Z,101076.06
2023-02-16T19:42:41.424Z,101073.25
2023-02-16T19:45:08.944Z,101065.09
2023-02-16T19:47:36.168Z,101077.28
2023-02-16T19:50:03.807Z,101085.38
2023-02-16T19:52:30.828Z,101091.09
2023-02-16T19:54:59.156Z,101076.59
2023-02-16T19:57:26.090Z,101080.69
2023-02-16T19:59:53.103Z,101080.47
2023-02-16T20:02:24.780Z,101081.97
2023-02-16T20:04:54.478Z,101097.19
2023-02-16T20:07:21.416Z,101106.41
2023-02-16T20:09:48.348Z,101124.91
2023-02-16T20:12:15.569Z,101116.19
2023-02-16T20:14:55.840Z,101107.44
2023-02-16T20:17:23.228Z,101107.97
2023-02-16T20:19:50.572Z,101091.00
2023-02-16T20:22:18.928Z,101099.97
2023-02-16T20:24:46.217Z,101088.44
2023-02-16T20:27:14.785Z,101101.94
2023-02-16T20:29:41.845Z,101101.25
2023-02-16T20:32:08.984Z,101074.50
2023-02-16T20:34:36.066Z,101082.44
2023-02-16T20:37:03.368Z,101083.25
2023-02-16T20:39:30.427Z,101084.78
2023-02-16T20:41:58.510Z,101088.88
2023-02-16T20:44:27.157Z,101080.75
2023-02-16T20:46:54.422Z,101079.00
2023-02-16T20:49:21.548Z,101069.22
2023-02-16T20:51:48.739Z,101061.00
2023-02-16T20:54:17.442Z,101064.44
2023-02-16T20:56:44.463Z,101051.94
2023-02-16T20:59:12.639Z,101057.16
2023-02-16T21:01:46.683Z,101056.31
2023-02-16T21:04:16.881Z,101048.81
2023-02-16T21:06:45.211Z,101050.59
2023-02-16T21:09:13.010Z,101053.28
2023-02-16T21:11:40.398Z,101047.97
2023-02-16T21:14:10.502Z,101033.69
2023-02-16T21:16:38.207Z,101044.41
2023-02-16T21:19:17.289Z,101054.03
2023-02-16T21:21:49.627Z,101034.78
2023-02-16T21:24:16.661Z,101041.81
2023-02-16T21:26:43.873Z,101071.72
2023-02-16T21:29:11.002Z,101031.66
2023-02-16T21:31:38.172Z,101020.91
2023-02-16T21:34:05.807Z,101008.16
2023-02-16T21:36:33.440Z,101002.81
2023-02-16T21:39:02.949Z,101012.09
2023-02-16T21:41:30.651Z,100998.16
2023-02-16T21:44:09.337Z,100990.28
2023-02-16T21:46:43.382Z,100988.25
2023-02-16T21:49:18.317Z,100987.63
2023-02-16T21:51:47.233Z,100980.78
2023-02-16T21:54:17.477Z,100955.09
2023-02-16T21:56:50.334Z,100956.41
2023-02-16T21:59:24.609Z,100937.78
2023-02-16T22:01:52.123Z,100938.59
2023-02-16T22:04:22.258Z,100964.88
2023-02-16T22:06:51.275Z,100955.41
2023-02-16T22:09:21.633Z,100916.06
2023-02-16T22:11:49.399Z,100938.34
2023-02-16T22:14:16.865Z,100916.06
2023-02-16T22:16:46.656Z,100910.03
2023-02-16T22:19:17.284Z,100915.63
2023-02-16T22:21:46.866Z,100895.25
2023-02-16T22:24:16.014Z,100886.75
2023-02-16T22:26:43.111Z,100904.81
2023-02-16T22:29:12.445Z,100898.78
2023-02-16T22:31:46.917Z,100883.09
2023-02-16T22:34:18.226Z,100880.34
2023-02-16T22:36:45.907Z,100875.34
2023-02-16T22:39:14.979Z,100870.75
2023-02-16T22:41:42.182Z,100861.66
2023-02-16T22:44:11.577Z,100855.69
2023-02-16T22:46:38.816Z,100847.63
2023-02-16T22:49:05.790Z,100869.09
2023-02-16T22:51:32.910Z,100845.28
2023-02-16T22:54:01.810Z,100859.50
2023-02-16T22:56:30.023Z,100850.25
2023-02-16T22:58:58.494Z,100835.00
2023-02-16T23:01:28.937Z,100837.75
2023-02-16T23:03:58.048Z,100838.00
2023-02-16T23:06:34.807Z,100833.81
2023-02-16T23:09:07.493Z,100840.66
2023-02-16T23:11:35.908Z,100836.81
2023-02-16T23:14:03.561Z,100805.19
2023-02-16T23:16:30.904Z,100797.16
2023-02-16T23:19:00.012Z,100805.13
2023-02-16T23:21:30.614Z,100824.72
2023-02-16T23:23:58.865Z,100866.06
2023-02-16T23:26:30.214Z,100797.28
2023-02-16T23:29:01.659Z,100780.50
2023-02-16T23:31:33.817Z,100760.22
2023-02-16T23:34:02.545Z,100733.34
2023-02-16T23:36:36.298Z,100768.59
2023-02-16T23:39:11.013Z,100794.25
2023-02-16T23:41:38.143Z,100784.78
2023-02-16T23:44:06.857Z,100806.25
2023-02-16T23:46:35.054Z,100792.06
2023-02-16T23:49:02.137Z,100788.66
2023-02-16T23:51:29.384Z,100771.63
2023-02-16T23:53:56.864Z,100769.88
2023-02-16T23:56:27.149Z,100775.16
2023-02-16T23:58:59.799Z,100758.25
